Time;durP1;ratioP1;P1;durP2;ratioP2;P2;SDS_P1;SDS_P2;PMS_P1;PMS_P2;Temp;Humidity;BMP_temperature;BMP_pressure;BME280_temperature;BME280_humidity;BME280_pressure;Samples;Min_cycle;Max_cycle;Signal;HPM_P1;HPM_P2
2024/04/24 00:01:27;;;;;;;8.20;4.88;;;;;;;9.16;45.86;98494.56;5416045;26;20014;-45
2024/04/24 00:03:52;;;;;;;8.88;4.90;;;;;;;9.14;45.85;98499.97;5384623;26;20007;-45
2024/04/24 00:06:18;;;;;;;6.35;3.88;;;;;;;9.03;45.71;98491.88;5414144;26;20503;-45
2024/04/24 00:08:44;;;;;;;8.27;5.00;;;;;;;8.76;45.75;98495.16;5415829;26;19999;-45
2024/04/24 00:11:09;;;;;;;11.38;4.88;;;;;;;8.67;46.60;98487.66;5414038;26;19999;-45
2024/04/24 00:13:35;;;;;;;7.95;4.45;;;;;;;8.75;46.78;98487.50;5414198;26;20051;-45
2024/04/24 00:16:01;;;;;;;12.25;6.57;;;;;;;8.76;46.96;98491.75;5413995;26;20230;-45
2024/04/24 00:18:26;;;;;;;9.45;8.25;;;;;;;8.82;46.98;98490.97;5413937;26;20072;-45
2024/04/24 00:20:55;;;;;;;8.73;5.25;;;;;;;8.91;47.00;98483.78;5415661;26;20045;-45
2024/04/24 00:23:21;;;;;;;9.70;7.32;;;;;;;9.04;46.80;98490.88;5413877;26;20396;-45
2024/04/24 00:25:48;;;;;;;8.75;5.03;;;;;;;9.03;46.35;98482.22;5415519;26;20015;-45
2024/04/24 00:28:13;;;;;;;12.60;7.07;;;;;;;9.00;46.40;98480.78;5415495;26;20014;-45
2024/04/24 00:30:39;;;;;;;7.32;6.03;;;;;;;8.95;46.56;98483.19;5413808;26;20438;-45
2024/04/24 00:33:04;;;;;;;5.00;4.50;;;;;;;8.79;46.74;98489.56;5413688;26;20403;-45
2024/04/24 00:35:30;;;;;;;6.57;4.85;;;;;;;8.57;46.99;98488.84;5415362;26;20094;-45
2024/04/24 00:37:56;;;;;;;9.55;6.65;;;;;;;8.31;47.87;98481.59;5413362;26;20358;-45
2024/04/24 00:40:21;;;;;;;7.70;5.53;;;;;;;8.27;48.22;98485.59;5413445;26;20331;-45
2024/04/24 00:42:47;;;;;;;11.80;6.43;;;;;;;8.28;48.42;98479.34;5413537;26;20003;-45
2024/04/24 00:45:13;;;;;;;13.00;11.20;;;;;;;8.28;49.21;98481.97;5413455;26;20446;-45
2024/04/24 00:47:40;;;;;;;11.57;6.95;;;;;;;8.47;49.50;98479.69;5415118;26;20016;-45
2024/04/24 00:50:12;;;;;;;39.20;23.42;;;;;;;8.56;49.49;98475.94;5418764;26;20014;-45
2024/04/24 00:52:40;;;;;;;15.25;10.27;;;;;;;8.60;49.88;98469.31;5418763;26;20007;-45
2024/04/24 00:55:06;;;;;;;21.30;17.63;;;;;;;8.62;49.24;98462.09;5418717;26;20454;-45
2024/04/24 00:57:32;;;;;;;15.82;10.95;;;;;;;8.51;48.79;98457.41;5416974;26;19999;-45
2024/04/24 00:59:58;;;;;;;8.63;7.25;;;;;;;8.37;49.04;98459.09;5416838;26;20015;-45
2024/04/24 01:02:24;;;;;;;8.65;6.22;;;;;;;8.30;49.08;98460.88;5418524;26;20029;-46
2024/04/24 01:04:50;;;;;;;18.02;15.85;;;;;;;8.29;49.05;98456.63;5418576;26;19999;-45
2024/04/24 01:07:15;;;;;;;10.55;6.63;;;;;;;8.34;48.85;98452.44;5387415;26;20000;-46
2024/04/24 01:09:41;;;;;;;10.93;6.75;;;;;;;8.43;48.79;98461.00;5418497;26;20006;-45
2024/04/24 01:12:07;;;;;;;11.77;7.18;;;;;;;8.31;48.62;98454.63;5418531;26;20003;-45
2024/04/24 01:14:32;;;;;;;6.20;4.32;;;;;;;8.37;49.01;98449.44;5418342;26;20366;-45
2024/04/24 01:17:03;;;;;;;11.27;8.05;;;;;;;8.39;48.22;98460.53;5418476;26;20000;-45
2024/04/24 01:19:47;;;;;;;8.02;4.70;;;;;;;8.33;48.63;98455.22;5418463;26;20018;-45
2024/04/24 01:22:48;;;;;;;6.45;5.45;;;;;;;8.37;48.62;98464.31;5418243;26;19999;-45
2024/04/24 01:25:35;;;;;;;6.43;5.50;;;;;;;8.50;48.47;98464.44;5416580;26;20457;-45
2024/04/24 01:28:03;;;;;;;8.07;4.90;;;;;;;8.79;48.40;98459.94;5418228;26;20011;-45
2024/04/24 01:30:28;;;;;;;30.92;26.33;;;;;;;8.90;47.92;98464.66;5418214;26;20004;-45
2024/04/24 01:32:54;;;;;;;30.98;25.10;;;;;;;9.12;47.78;98461.91;5418208;26;20105;-45
2024/04/24 01:35:20;;;;;;;92.03;82.20;;;;;;;9.20;47.40;98459.13;5416386;26;20015;-45
2024/04/24 01:37:46;;;;;;;34.22;25.42;;;;;;;9.05;47.32;98468.94;5417787;26;20409;-45
2024/04/24 01:40:11;;;;;;;14.20;10.43;;;;;;;8.97;47.76;98460.25;5418104;26;20030;-46
2024/04/24 01:42:37;;;;;;;72.55;52.95;;;;;;;9.02;47.53;98466.72;5416260;26;20008;-45
2024/04/24 01:45:03;;;;;;;22.20;19.48;;;;;;;9.11;47.76;98460.28;5416339;26;20003;-45
2024/04/24 01:47:29;;;;;;;11.48;9.80;;;;;;;9.16;47.34;98463.94;5416235;26;20031;-45
2024/04/24 01:49:54;;;;;;;7.45;6.43;;;;;;;9.18;47.28;98463.75;5417885;26;20084;-45
2024/04/24 01:52:20;;;;;;;13.10;6.55;;;;;;;9.19;47.42;98462.72;5416117;26;20068;-45
2024/04/24 01:54:46;;;;;;;14.18;8.77;;;;;;;9.16;47.27;98468.38;5416187;26;20489;-46
2024/04/24 01:57:11;;;;;;;42.38;31.50;;;;;;;9.02;47.73;98470.13;5417885;26;20449;-45
2024/04/24 01:59:37;;;;;;;13.07;5.85;;;;;;;8.92;47.90;98472.31;5416832;26;20083;-45
2024/04/24 02:02:03;;;;;;;8.50;6.47;;;;;;;8.67;48.05;98464.94;5417820;26;20133;-46
2024/04/24 02:04:28;;;;;;;8.15;7.18;;;;;;;8.51;48.00;98476.53;5416069;26;20018;-46
2024/04/24 02:06:54;;;;;;;11.80;7.90;;;;;;;8.29;48.41;98472.31;5415906;26;20000;-45
2024/04/24 02:09:20;;;;;;;11.45;8.75;;;;;;;8.13;49.07;98471.63;5417747;26;20437;-45
2024/04/24 02:11:45;;;;;;;13.85;6.93;;;;;;;7.98;49.76;98479.53;5417563;26;20000;-45
2024/04/24 02:14:11;;;;;;;9.88;6.38;;;;;;;7.80;49.70;98479.97;5415966;26;20337;-46
2024/04/24 02:16:37;;;;;;;10.60;8.90;;;;;;;7.80;50.80;98481.78;5417434;26;20028;-45
2024/04/24 02:19:02;;;;;;;16.50;6.18;;;;;;;7.78;51.10;98486.38;5415872;26;20011;-45
2024/04/24 02:21:28;;;;;;;15.05;9.13;;;;;;;7.83;51.35;98488.44;5417626;26;20003;-45
2024/04/24 02:23:54;;;;;;;10.10;7.65;;;;;;;7.78;50.92;98481.97;5415748;26;20010;-45
2024/04/24 02:26:19;;;;;;;11.85;10.00;;;;;;;7.70;51.17;98483.91;5417415;26;20446;-45
2024/04/24 02:28:45;;;;;;;11.40;7.13;;;;;;;7.62;51.45;98482.22;5415906;26;20010;-45
2024/04/24 02:31:10;;;;;;;13.10;11.82;;;;;;;7.46;51.46;98482.44;5417318;26;20408;-45
2024/04/24 02:33:38;;;;;;;12.82;7.82;;;;;;;7.25;51.96;98481.44;5415601;26;20726;-45
2024/04/24 02:36:04;;;;;;;9.88;6.95;;;;;;;7.11;52.88;98490.09;5417411;26;20028;-45
2024/04/24 02:38:29;;;;;;;23.05;15.95;;;;;;;7.05;53.02;98489.03;5417155;26;20010;-45
2024/04/24 02:40:55;;;;;;;14.85;12.25;;;;;;;7.04;53.69;98486.59;5417148;26;20045;-45
2024/04/24 02:43:21;;;;;;;11.15;7.57;;;;;;;7.14;54.08;98487.13;5417277;26;20073;-45
2024/04/24 02:45:46;;;;;;;11.60;8.48;;;;;;;7.17;53.66;98478.94;5415304;26;20053;-45
2024/04/24 02:48:12;;;;;;;11.18;6.60;;;;;;;7.06;53.61;98487.22;5415382;26;20031;-45
2024/04/24 02:50:37;;;;;;;11.43;9.25;;;;;;;6.99;53.84;98477.50;5417013;26;20015;-45
2024/04/24 02:53:03;;;;;;;12.13;8.52;;;;;;;7.13;54.12;98482.91;5417149;26;20003;-45
2024/04/24 02:55:29;;;;;;;23.25;18.73;;;;;;;7.15;53.97;98480.91;5415372;26;20008;-45
2024/04/24 02:57:55;;;;;;;9.95;7.45;;;;;;;7.16;53.79;98478.13;5415255;26;20011;-45
2024/04/24 03:00:20;;;;;;;14.43;10.43;;;;;;;6.98;53.51;98477.69;5415378;26;20000;-45
2024/04/24 03:02:46;;;;;;;17.88;15.75;;;;;;;6.76;54.04;98482.03;5415261;26;20008;-45
2024/04/24 03:05:12;;;;;;;12.90;10.48;;;;;;;6.71;54.79;98477.38;5416854;26;20011;-45
2024/04/24 03:07:38;;;;;;;24.15;20.70;;;;;;;6.70;54.89;98477.53;5416966;26;20011;-45
2024/04/24 03:10:04;;;;;;;9.35;6.93;;;;;;;6.60;55.36;98473.41;5416711;26;20000;-45
2024/04/24 03:12:29;;;;;;;15.02;8.95;;;;;;;6.66;55.75;98468.47;5416849;26;20004;-45
2024/04/24 03:14:55;;;;;;;14.82;11.70;;;;;;;6.67;55.99;98477.91;5416744;26;20010;-45
2024/04/24 03:17:20;;;;;;;30.85;24.27;;;;;;;6.54;55.73;98474.13;5416821;26;20007;-45
2024/04/24 03:19:46;;;;;;;19.27;16.35;;;;;;;6.57;56.07;98475.56;5414885;26;20000;-45
2024/04/24 03:22:13;;;;;;;17.13;11.40;;;;;;;6.51;55.64;98469.25;5414885;26;20523;-45
2024/04/24 03:24:39;;;;;;;21.55;14.60;;;;;;;6.41;55.82;98471.34;5416745;26;20331;-45
2024/04/24 03:27:05;;;;;;;23.05;14.73;;;;;;;6.42;55.93;98470.34;5416658;26;20076;-45
2024/04/24 03:29:30;;;;;;;14.65;9.18;;;;;;;6.50;56.26;98474.66;5415215;26;20003;-45
2024/04/24 03:31:56;;;;;;;36.95;28.92;;;;;;;6.46;56.19;98476.00;5385226;26;19999;-45
2024/04/24 03:34:23;;;;;;;25.13;19.45;;;;;;;6.42;56.79;98474.75;5416576;26;19999;-45
2024/04/24 03:36:49;;;;;;;27.85;19.40;;;;;;;6.40;57.29;98482.75;5416045;26;20371;-45
2024/04/24 03:39:15;;;;;;;24.98;20.13;;;;;;;6.43;57.01;98474.56;5416513;26;20003;-45
2024/04/24 03:41:40;;;;;;;20.30;17.13;;;;;;;6.49;57.02;98478.25;5416359;26;19999;-45
2024/04/24 03:44:06;;;;;;;33.10;27.90;;;;;;;6.57;57.31;98476.38;5414698;26;20026;-45
2024/04/24 03:46:32;;;;;;;19.33;14.10;;;;;;;6.63;56.98;98474.03;5414493;26;19999;-45
2024/04/24 03:48:57;;;;;;;109.40;97.60;;;;;;;6.58;57.01;98475.41;5416379;26;20003;-45
2024/04/24 03:51:23;;;;;;;39.03;34.90;;;;;;;6.60;57.09;98476.03;5416353;26;20011;-45
2024/04/24 03:53:49;;;;;;;21.33;19.02;;;;;;;6.63;56.51;98471.44;5416298;26;20373;-45
2024/04/24 03:56:15;;;;;;;21.42;18.15;;;;;;;6.45;56.63;98475.19;5416277;26;20003;-45
2024/04/24 03:58:41;;;;;;;17.23;13.07;;;;;;;6.34;57.10;98480.88;5416153;26;20003;-45
2024/04/24 04:01:06;;;;;;;11.13;9.40;;;;;;;6.29;56.78;98480.56;5414265;26;20004;-45
2024/04/24 04:03:32;;;;;;;31.05;27.73;;;;;;;6.20;57.25;98485.06;5416081;26;20000;-45
2024/04/24 04:05:58;;;;;;;17.63;13.35;;;;;;;6.13;57.22;98484.13;5416058;26;20015;-45
2024/04/24 04:08:24;;;;;;;12.80;9.63;;;;;;;6.01;57.35;98483.75;5416002;26;20000;-45
2024/04/24 04:10:50;;;;;;;37.92;30.40;;;;;;;5.97;57.88;98488.50;5415922;26;20023;-45
2024/04/24 04:13:16;;;;;;;19.42;15.18;;;;;;;5.97;57.78;98487.69;5415813;26;20337;-45
2024/04/24 04:15:41;;;;;;;44.65;35.67;;;;;;;5.94;58.22;98482.81;5415842;26;20977;-45
2024/04/24 04:18:07;;;;;;;27.25;22.25;;;;;;;5.94;58.36;98485.44;5415928;26;20017;-45
2024/04/24 04:20:33;;;;;;;19.65;15.65;;;;;;;5.92;58.34;98485.59;5413869;26;20461;-45
2024/04/24 04:23:00;;;;;;;21.20;17.88;;;;;;;6.10;58.84;98481.91;5417989;26;20460;-45
2024/04/24 04:25:27;;;;;;;27.60;22.75;;;;;;;6.36;59.06;98487.50;5419193;26;20011;-45
2024/04/24 04:27:53;;;;;;;19.52;13.25;;;;;;;6.57;58.78;98489.41;5419148;26;20044;-45
2024/04/24 04:30:19;;;;;;;30.45;25.60;;;;;;;6.77;58.50;98484.47;5419072;26;20446;-45
2024/04/24 04:32:45;;;;;;;17.50;15.63;;;;;;;6.99;58.22;98482.72;5417343;26;20333;-45
2024/04/24 04:35:10;;;;;;;55.47;49.30;;;;;;;7.15;57.67;98479.09;5417195;26;20351;-45
2024/04/24 04:37:36;;;;;;;26.48;17.10;;;;;;;7.24;56.96;98479.00;5416960;26;20018;-45
2024/04/24 04:40:03;;;;;;;30.48;20.67;;;;;;;7.34;57.09;98482.13;5418978;26;20017;-46
2024/04/24 04:42:29;;;;;;;22.27;15.75;;;;;;;7.42;56.68;98478.59;5417080;26;20019;-45
2024/04/24 04:44:55;;;;;;;13.75;12.35;;;;;;;7.51;56.10;98477.50;5418853;26;20011;-45
2024/04/24 04:47:21;;;;;;;23.55;13.38;;;;;;;7.48;56.28;98483.06;5417120;26;20333;-45
2024/04/24 04:49:46;;;;;;;26.33;23.42;;;;;;;7.46;55.85;98472.00;5418792;26;20007;-45
2024/04/24 04:52:12;;;;;;;12.30;10.32;;;;;;;7.48;55.83;98472.63;5418772;26;20012;-45
2024/04/24 04:54:37;;;;;;;18.45;16.65;;;;;;;7.48;55.80;98481.25;5418643;26;20011;-45
2024/04/24 04:57:03;;;;;;;32.90;23.50;;;;;;;7.47;55.90;98484.88;5418692;26;20004;-45
2024/04/24 04:59:29;;;;;;;21.58;19.25;;;;;;;7.54;56.39;98479.72;5418832;26;20031;-45
2024/04/24 05:01:54;;;;;;;27.35;24.52;;;;;;;7.57;56.62;98482.78;5418652;26;20345;-45
2024/04/24 05:04:20;;;;;;;16.70;10.75;;;;;;;7.74;56.01;98479.91;5416792;26;20007;-45
2024/04/24 05:06:46;;;;;;;25.00;22.55;;;;;;;7.83;55.15;98483.19;5418603;26;20011;-45
2024/04/24 05:09:11;;;;;;;28.90;12.90;;;;;;;7.77;55.28;98482.97;5416824;26;20010;-45
2024/04/24 05:11:37;;;;;;;19.27;10.88;;;;;;;7.99;54.96;98486.38;5416751;26;20003;-45
2024/04/24 05:14:03;;;;;;;14.65;11.43;;;;;;;8.66;54.08;98480.84;5418502;26;20014;-45
2024/04/24 05:16:28;;;;;;;43.90;14.02;;;;;;;9.69;50.90;98486.03;5416506;26;20003;-45
2024/04/24 05:18:54;;;;;;;34.22;19.73;;;;;;;10.71;48.35;98486.63;5416887;26;20026;-45
2024/04/24 05:21:20;;;;;;;17.25;10.55;;;;;;;11.43;46.12;98483.91;5418416;26;20006;-46
2024/04/24 05:23:46;;;;;;;21.35;11.23;;;;;;;12.07;44.52;98482.88;5418270;26;20417;-45
2024/04/24 05:29:04;;;;;;;30.95;24.10;;;;;;;12.88;42.72;98490.84;5418405;26;20349;-46
2024/04/24 05:31:35;;;;;;;16.67;11.23;;;;;;;13.30;42.38;98485.69;5418420;26;20026;-46
2024/04/24 05:34:02;;;;;;;21.00;14.68;;;;;;;13.83;41.18;98479.69;5416878;26;20462;-46
2024/04/24 05:36:27;;;;;;;58.25;52.13;;;;;;;14.25;40.35;98486.75;5417816;26;20007;-46
2024/04/24 05:38:53;;;;;;;25.80;19.02;;;;;;;14.42;39.96;98487.66;5418643;26;20010;-46
2024/04/24 05:41:19;;;;;;;24.52;21.95;;;;;;;14.52;40.01;98490.53;5418436;26;20450;-46
2024/04/24 05:43:44;;;;;;;16.85;12.63;;;;;;;14.93;38.86;98486.16;5416593;26;20080;-46
2024/04/24 05:46:10;;;;;;;25.35;21.83;;;;;;;15.49;37.92;98485.59;5416529;26;20035;-46
2024/04/24 05:48:36;;;;;;;14.50;12.88;;;;;;;15.91;36.58;98486.09;5416556;26;20012;-46
2024/04/24 05:51:01;;;;;;;21.75;18.60;;;;;;;16.31;36.79;98485.13;5416434;26;20426;-46
2024/04/24 05:53:27;;;;;;;20.90;12.68;;;;;;;16.62;35.55;98485.59;5418313;26;20018;-46
2024/04/24 05:55:53;;;;;;;23.85;21.33;;;;;;;15.94;35.21;98482.19;5418133;26;20011;-46
2024/04/24 05:58:18;;;;;;;27.15;24.33;;;;;;;14.77;36.68;98492.16;5418344;26;20007;-46
2024/04/24 06:00:44;;;;;;;31.13;27.77;;;;;;;13.95;38.01;98491.06;5417713;26;20014;-45
2024/04/24 06:03:10;;;;;;;28.38;25.42;;;;;;;13.24;39.02;98494.47;5417812;26;20014;-45
2024/04/24 06:05:36;;;;;;;19.35;16.30;;;;;;;12.82;40.06;98491.72;5417790;26;20446;-45
2024/04/24 06:08:01;;;;;;;27.00;20.40;;;;;;;13.06;40.63;98492.66;5417863;26;20010;-45
2024/04/24 06:10:27;;;;;;;28.10;11.93;;;;;;;14.33;39.34;98487.22;5416022;26;20011;-46
2024/04/24 06:12:52;;;;;;;14.90;9.98;;;;;;;15.03;37.54;98490.84;5417606;26;20014;-46
2024/04/24 06:15:18;;;;;;;18.02;15.30;;;;;;;14.67;37.14;98486.63;5417597;26;20010;-46
2024/04/24 06:17:44;;;;;;;31.73;24.05;;;;;;;13.81;38.92;98491.50;5415848;26;20000;-46
2024/04/24 06:20:15;;;;;;;114.60;23.10;;;;;;;13.06;39.53;98496.13;5417530;26;20049;-46
2024/04/24 06:22:41;;;;;;;46.92;28.65;;;;;;;12.52;41.10;98502.97;5417598;26;20015;-46
2024/04/24 06:25:07;;;;;;;21.25;13.65;;;;;;;12.29;41.67;98495.66;5415730;26;20003;-46
2024/04/24 06:27:33;;;;;;;28.17;17.13;;;;;;;11.74;42.04;98491.81;5415670;26;20039;-46
2024/04/24 06:29:59;;;;;;;45.33;23.88;;;;;;;11.45;43.44;98502.88;5415756;26;20085;-46
2024/04/24 06:32:25;;;;;;;26.63;17.98;;;;;;;11.47;43.18;98500.84;5417352;26;20000;-46
2024/04/24 06:34:50;;;;;;;20.10;11.55;;;;;;;11.48;43.26;98505.09;5417478;26;20004;-46
2024/04/24 06:37:16;;;;;;;20.95;10.82;;;;;;;11.31;43.72;98510.06;5417261;26;20502;-46
2024/04/24 06:39:42;;;;;;;30.20;15.82;;;;;;;10.96;43.79;98507.75;5417570;26;20000;-46
2024/04/24 06:42:08;;;;;;;24.33;19.10;;;;;;;10.90;44.17;98505.94;5415817;26;20003;-46
2024/04/24 06:44:34;;;;;;;30.20;13.15;;;;;;;10.92;44.37;98498.66;5415332;26;20003;-46
2024/04/24 06:47:00;;;;;;;46.95;42.13;;;;;;;10.92;44.57;98507.34;5417491;26;20000;-45
2024/04/24 06:49:26;;;;;;;20.27;13.85;;;;;;;10.93;44.39;98506.34;5415819;26;20462;-46
2024/04/24 06:51:52;;;;;;;23.75;17.17;;;;;;;10.75;44.79;98507.00;5417210;26;20010;-46
2024/04/24 06:54:17;;;;;;;33.85;20.17;;;;;;;11.01;44.81;98507.94;5415698;26;20000;-46
2024/04/24 06:56:43;;;;;;;37.88;32.65;;;;;;;11.29;44.71;98498.91;5415695;26;20003;-45
2024/04/24 06:59:09;;;;;;;64.10;57.50;;;;;;;11.54;44.17;98499.81;5415555;26;20330;-46
2024/04/24 07:01:34;;;;;;;74.47;55.58;;;;;;;11.63;44.00;98503.00;5417054;26;20011;-46
2024/04/24 07:04:00;;;;;;;30.52;15.38;;;;;;;11.64;43.12;98506.44;5417055;26;20000;-46
2024/04/24 07:06:26;;;;;;;56.90;14.65;;;;;;;11.42;43.81;98504.13;5416848;26;20035;-46
2024/04/24 07:08:52;;;;;;;25.88;16.02;;;;;;;11.49;43.90;98504.91;5416900;26;20445;-46
2024/04/24 07:11:17;;;;;;;35.38;21.70;;;;;;;11.63;43.74;98504.81;5415004;26;20015;-46
2024/04/24 07:13:43;;;;;;;81.00;19.95;;;;;;;11.85;43.49;98503.47;5416776;26;20003;-46
2024/04/24 07:16:09;;;;;;;57.53;48.60;;;;;;;11.91;42.79;98499.19;5415011;26;20011;-46
2024/04/24 07:18:34;;;;;;;152.63;117.55;;;;;;;11.89;43.82;98501.25;5415065;26;20004;-46
2024/04/24 07:21:00;;;;;;;48.95;29.52;;;;;;;12.09;43.20;98501.91;5415016;26;20000;-46
2024/04/24 07:23:26;;;;;;;49.22;40.35;;;;;;;12.36;43.14;98494.59;5416596;26;20482;-46
2024/04/24 07:25:52;;;;;;;252.48;179.30;;;;;;;12.48;42.47;98501.78;5416672;26;20010;-46
2024/04/24 07:28:17;;;;;;;94.20;45.17;;;;;;;12.61;42.09;98500.84;5416695;26;20045;-46
2024/04/24 07:30:44;;;;;;;38.97;20.75;;;;;;;12.53;41.74;98492.19;5416468;26;20447;-46
2024/04/24 07:33:09;;;;;;;65.43;41.17;;;;;;;12.64;42.05;98493.31;5414850;26;19999;-46
2024/04/24 07:35:35;;;;;;;60.08;51.17;;;;;;;12.83;42.33;98498.59;5416454;26;20015;-46
2024/04/24 07:38:01;;;;;;;76.97;41.25;;;;;;;13.05;42.17;98496.31;5414759;26;20004;-46
2024/04/24 07:40:27;;;;;;;117.93;27.33;;;;;;;13.33;41.71;98493.97;5416605;26;20003;-46
2024/04/24 07:42:52;;;;;;;34.45;29.88;;;;;;;13.59;40.85;98494.66;5416712;26;20000;-46
2024/04/24 07:45:18;;;;;;;46.20;20.73;;;;;;;13.87;40.11;98493.25;5416617;26;20003;-46
2024/04/24 07:47:44;;;;;;;52.25;17.45;;;;;;;14.04;39.49;98494.16;5416722;26;20000;-47
2024/04/24 07:50:09;;;;;;;25.08;14.43;;;;;;;14.10;39.11;98493.25;5414721;26;20000;-46
2024/04/24 07:52:35;;;;;;;14.63;12.15;;;;;;;14.24;38.90;98490.41;5414668;26;20003;-46
2024/04/24 07:55:01;;;;;;;21.30;12.35;;;;;;;14.37;38.45;98493.63;5416442;26;20446;-46
2024/04/24 07:57:26;;;;;;;34.30;23.58;;;;;;;14.67;38.29;98494.56;5415199;26;20049;-46
2024/04/24 07:59:52;;;;;;;68.90;49.55;;;;;;;15.08;38.27;98490.94;5414732;26;20450;-46
2024/04/24 08:02:18;;;;;;;115.45;48.67;;;;;;;15.76;37.33;98486.66;5414191;26;19999;-46
2024/04/24 08:04:44;;;;;;;101.20;65.93;;;;;;;16.63;36.02;98491.69;5415899;26;20015;-46
2024/04/24 08:07:11;;;;;;;201.18;95.00;;;;;;;17.24;34.79;98475.75;5414093;26;20373;-46
2024/04/24 08:09:36;;;;;;;35.72;15.35;;;;;;;17.70;33.68;98484.94;5415866;26;20015;-46
2024/04/24 08:12:05;;;;;;;29.35;12.32;;;;;;;18.30;32.85;98479.63;5415769;26;20000;-46
2024/04/24 08:14:31;;;;;;;21.70;17.35;;;;;;;19.20;31.61;98481.44;5415858;26;19999;-46
2024/04/24 08:16:57;;;;;;;25.23;21.08;;;;;;;19.03;30.66;98484.28;5384396;26;20069;-47
2024/04/24 08:19:23;;;;;;;48.70;13.95;;;;;;;18.36;31.14;98482.06;5414056;26;20442;-47
2024/04/24 08:21:48;;;;;;;33.40;10.45;;;;;;;18.13;32.00;98488.53;5415705;26;20014;-46
2024/04/24 08:24:14;;;;;;;16.45;11.48;;;;;;;17.91;31.19;98482.53;5415667;26;20000;-45
2024/04/24 08:26:40;;;;;;;30.25;16.95;;;;;;;17.95;30.73;98478.31;5413731;26;20012;-46
2024/04/24 08:29:06;;;;;;;82.60;63.92;;;;;;;17.61;30.46;98489.13;5415642;26;20439;-46
2024/04/24 08:31:31;;;;;;;64.18;57.38;;;;;;;17.29;31.24;98486.41;5415452;26;19999;-46
2024/04/24 08:33:57;;;;;;;86.15;70.35;;;;;;;17.05;30.90;98493.84;5413833;26;20010;-45
2024/04/24 08:36:23;;;;;;;184.70;167.15;;;;;;;16.89;31.64;98488.34;5414996;26;20003;-45
2024/04/24 08:38:48;;;;;;;49.47;41.67;;;;;;;16.88;31.55;98483.28;5415460;26;20014;-45
2024/04/24 08:41:14;;;;;;;47.25;38.10;;;;;;;16.92;31.38;98481.72;5413581;26;20008;-46
2024/04/24 08:43:42;;;;;;;21.88;14.27;;;;;;;17.05;31.12;98478.72;5413632;26;20000;-46
2024/04/24 08:46:11;;;;;;;15.77;11.20;;;;;;;18.35;29.86;98474.31;5413767;26;20003;-46
2024/04/24 08:48:41;;;;;;;17.10;8.77;;;;;;;20.67;27.36;98463.09;5413571;26;20128;-46
2024/04/24 08:51:11;;;;;;;22.58;9.18;;;;;;;22.63;25.20;98448.09;5415369;26;20341;-44
2024/04/24 08:54:02;;;;;;;14.57;8.40;;;;;;;23.85;24.15;98452.09;5414888;26;20331;-44
2024/04/24 08:56:34;;;;;;;11.63;7.40;;;;;;;25.13;22.19;98438.94;5415008;26;20079;-44
2024/04/24 08:59:06;;;;;;;9.88;6.57;;;;;;;25.87;20.89;98427.84;5415194;26;20122;-44
2024/04/24 09:01:37;;;;;;;14.40;6.22;;;;;;;25.78;19.39;98426.22;5413413;26;20370;-44
2024/04/24 09:04:08;;;;;;;10.88;5.55;;;;;;;26.12;19.10;98433.72;5413403;26;20014;-44
2024/04/24 09:06:35;;;;;;;9.23;6.53;;;;;;;26.66;18.47;98430.91;5414907;26;20003;-44
2024/04/24 09:09:01;;;;;;;9.40;7.53;;;;;;;26.88;17.75;98430.84;5415735;26;20015;-44
2024/04/24 09:11:27;;;;;;;12.60;8.27;;;;;;;27.04;18.63;98439.22;5418666;26;20000;-44
2024/04/24 09:13:54;;;;;;;13.50;8.07;;;;;;;27.66;17.61;98432.75;5418528;26;20014;-44
2024/04/24 09:16:21;;;;;;;14.98;7.80;;;;;;;27.68;17.69;98419.75;5418408;26;20037;-44
2024/04/24 09:19:03;;;;;;;13.07;6.45;;;;;;;26.81;17.68;98427.00;5418570;26;20003;-44
2024/04/24 09:21:30;;;;;;;11.55;5.88;;;;;;;26.96;17.52;98421.16;5418387;26;20003;-44
2024/04/24 09:23:57;;;;;;;11.02;5.20;;;;;;;26.75;17.20;98420.97;5418428;26;20039;-44
2024/04/24 09:26:24;;;;;;;16.85;7.10;;;;;;;25.63;18.14;98435.44;5418316;26;20330;-44
2024/04/24 09:28:50;;;;;;;14.75;6.63;;;;;;;26.07;17.69;98431.94;5416662;26;20073;-44
2024/04/24 09:31:17;;;;;;;8.07;6.30;;;;;;;26.60;17.59;98429.47;5416496;26;20527;-45
2024/04/24 09:33:42;;;;;;;17.17;5.75;;;;;;;27.61;17.60;98422.16;5418301;26;20461;-44
2024/04/24 09:36:08;;;;;;;11.10;5.40;;;;;;;28.55;16.99;98416.00;5418111;26;20019;-45
2024/04/24 09:38:34;;;;;;;7.95;6.32;;;;;;;28.62;16.44;98415.53;5416149;26;20015;-45
2024/04/24 09:41:01;;;;;;;14.05;6.65;;;;;;;29.47;15.67;98406.34;5416499;26;20330;-45
2024/04/24 09:43:27;;;;;;;6.63;5.60;;;;;;;28.54;15.70;98406.34;5416413;26;20422;-44
2024/04/24 09:46:03;;;;;;;9.20;5.53;;;;;;;27.54;16.32;98419.13;5416334;26;20000;-44
2024/04/24 09:48:29;;;;;;;8.07;5.50;;;;;;;26.96;16.52;98413.06;5416604;26;20334;-44
2024/04/24 09:50:55;;;;;;;10.85;5.90;;;;;;;25.12;17.82;98423.94;5386606;26;20014;-44
2024/04/24 09:53:21;;;;;;;9.55;6.47;;;;;;;23.58;19.04;98424.06;5417847;26;20453;-44
2024/04/24 09:56:27;;;;;;;11.05;5.68;;;;;;;23.57;20.26;98411.78;5416067;26;20000;-44
2024/04/24 09:58:55;;;;;;;9.93;5.53;;;;;;;25.30;18.55;98400.75;5418113;26;20004;-45
2024/04/24 10:01:27;;;;;;;7.45;6.60;;;;;;;24.95;17.85;98408.47;5417818;26;20080;-44
2024/04/24 10:03:56;;;;;;;13.93;8.45;;;;;;;23.89;19.31;98402.97;5417876;26;20476;-44
2024/04/24 10:06:23;;;;;;;17.85;11.30;;;;;;;24.74;19.17;98405.41;5417890;26;20050;-45
2024/04/24 10:08:54;;;;;;;11.02;8.02;;;;;;;25.67;18.16;98391.50;5415961;26;20458;-45
2024/04/24 10:11:24;;;;;;;9.35;6.10;;;;;;;26.30;17.91;98395.00;5417626;26;20362;-45
2024/04/24 10:13:51;;;;;;;6.10;5.50;;;;;;;26.97;17.43;98384.28;5417768;26;20011;-45
2024/04/24 10:16:19;;;;;;;10.70;4.68;;;;;;;27.46;15.40;98372.22;5415737;26;20454;-44
2024/04/24 10:18:47;;;;;;;6.88;4.60;;;;;;;26.39;16.60;98370.03;5417673;26;20015;-44
2024/04/24 10:21:15;;;;;;;42.50;7.88;;;;;;;25.64;17.61;98373.31;5416549;26;20084;-44
2024/04/24 10:23:41;;;;;;;12.77;5.25;;;;;;;25.15;18.22;98374.19;5415894;26;20062;-44
2024/04/24 10:26:07;;;;;;;10.90;4.95;;;;;;;24.68;18.03;98375.19;5417564;26;20053;-44
2024/04/24 10:28:34;;;;;;;9.07;5.68;;;;;;;24.03;18.16;98384.22;5417481;26;20003;-44
2024/04/24 10:31:02;;;;;;;8.95;5.45;;;;;;;23.24;19.31;98389.50;5417410;26;20004;-44
2024/04/24 10:33:30;;;;;;;7.53;4.93;;;;;;;23.13;19.24;98380.84;5417416;26;20004;-43
2024/04/24 10:35:56;;;;;;;7.22;5.70;;;;;;;23.00;19.34;98381.53;5417305;26;20003;-44
2024/04/24 10:38:25;;;;;;;14.98;9.93;;;;;;;22.85;19.38;98375.31;5417085;26;20000;-44
2024/04/24 10:40:51;;;;;;;18.33;11.70;;;;;;;22.66;19.19;98379.88;5417292;26;20003;-44
2024/04/24 10:43:18;;;;;;;17.52;12.73;;;;;;;22.26;19.71;98385.41;5417279;26;20388;-44
2024/04/24 10:45:43;;;;;;;19.38;16.90;;;;;;;22.00;19.92;98370.69;5417267;26;20035;-44
2024/04/24 10:48:13;;;;;;;17.77;7.43;;;;;;;22.04;20.19;98377.84;5415573;26;20077;-44
2024/04/24 10:50:40;;;;;;;11.73;5.82;;;;;;;22.02;20.38;98373.88;5417197;26;20011;-44
2024/04/24 10:53:06;;;;;;;13.52;10.02;;;;;;;22.09;19.78;98372.47;5417186;26;20076;-44
2024/04/24 10:55:32;;;;;;;16.95;7.47;;;;;;;22.08;20.13;98367.41;5416998;26;20075;-44
2024/04/24 10:57:58;;;;;;;13.45;6.22;;;;;;;22.42;19.98;98364.63;5415308;26;20018;-44
2024/04/24 11:00:29;;;;;;;10.35;7.57;;;;;;;22.88;19.95;98344.53;5416983;26;19999;-44
2024/04/24 11:02:57;;;;;;;12.82;8.43;;;;;;;22.38;20.06;98354.81;5417105;26;20010;-44
2024/04/24 11:05:23;;;;;;;13.82;7.53;;;;;;;21.89;20.35;98353.94;5416959;26;20144;-44
2024/04/24 11:07:58;;;;;;;18.13;6.88;;;;;;;21.34;20.49;98354.94;5417188;26;20526;-43
2024/04/24 11:10:24;;;;;;;13.65;8.70;;;;;;;20.94;20.88;98356.78;5415486;26;20007;-44
2024/04/24 11:12:50;;;;;;;12.82;7.55;;;;;;;21.00;21.05;98359.44;5415389;26;20485;-43
2024/04/24 11:15:23;;;;;;;17.20;8.13;;;;;;;21.19;21.45;98356.91;5415276;26;20007;-44
2024/04/24 11:17:53;;;;;;;10.93;7.55;;;;;;;21.49;21.29;98355.91;5417092;26;20452;-44
2024/04/24 11:20:22;;;;;;;11.55;5.65;;;;;;;21.31;21.20;98355.50;5417004;26;20011;-44
2024/04/24 11:22:48;;;;;;;11.95;7.55;;;;;;;21.07;21.47;98355.41;5417024;26;20079;-43
2024/04/24 11:25:15;;;;;;;7.78;5.43;;;;;;;21.10;21.61;98346.03;5415100;26;20314;-43